Time;durP1;ratioP1;P1;durP2;ratioP2;P2;SDS_P1;SDS_P2;PMS_P1;PMS_P2;Temp;Humidity;BMP_temperature;BMP_pressure;BME280_temperature;BME280_humidity;BME280_pressure;Samples;Min_cycle;Max_cycle;Signal;HPM_P1;HPM_P2
2022/09/01 00:00:15;;;;;;;1.53;1.30;;;14.90;99.90;;;15.02;72.24;101817.97;4933965;29;20432;-70
2022/09/01 00:02:44;;;;;;;1.90;1.40;;;14.90;99.90;;;14.92;72.40;101817.53;4924478;29;20479;-69
2022/09/01 00:05:15;;;;;;;1.40;0.83;;;14.80;99.90;;;14.90;72.27;101825.94;4940815;29;20955;-69
2022/09/01 00:07:44;;;;;;;2.17;1.53;;;14.80;99.90;;;14.95;71.92;101819.84;4922965;29;20467;-69
2022/09/01 00:10:13;;;;;;;1.80;1.30;;;14.80;99.90;;;15.02;71.52;101832.44;4930299;29;20476;-69
2022/09/01 00:12:44;;;;;;;2.23;1.50;;;14.90;99.90;;;14.94;72.18;101827.19;4934970;29;20539;-69
2022/09/01 00:15:16;;;;;;;2.30;1.30;;;14.80;99.90;;;15.03;72.03;101831.38;4927967;29;20516;-69
2022/09/01 00:17:45;;;;;;;2.20;1.10;;;14.90;99.90;;;15.06;71.49;101833.69;4935853;29;20445;-69
2022/09/01 00:20:15;;;;;;;2.60;1.13;;;14.90;99.90;;;15.01;71.59;101828.03;4924184;29;20655;-69
2022/09/01 00:22:48;;;;;;;1.70;1.40;;;14.90;99.90;;;14.99;71.49;101830.13;4933876;29;20426;-69
2022/09/01 00:25:18;;;;;;;1.40;0.90;;;14.90;99.90;;;14.93;71.85;101827.41;4932682;28;20832;-69
2022/09/01 00:27:49;;;;;;;1.57;0.97;;;14.80;99.90;;;14.92;71.76;101826.56;4938117;28;20857;-69
2022/09/01 00:30:22;;;;;;;1.67;1.33;;;14.80;99.90;;;14.88;71.67;101822.56;4929202;28;20480;-69
2022/09/01 00:32:51;;;;;;;2.97;1.10;;;14.80;99.90;;;14.83;71.89;101819.63;4925858;29;20523;-71
2022/09/01 00:35:22;;;;;;;1.47;1.10;;;14.80;99.90;;;14.73;72.41;101830.94;4912757;29;20444;-71
2022/09/01 00:37:51;;;;;;;1.97;0.90;;;14.70;99.90;;;14.67;72.67;101820.00;4919467;29;20420;-71
2022/09/01 00:40:20;;;;;;;3.97;1.20;;;14.60;99.90;;;14.63;72.79;101816.03;4914471;29;20420;-71
2022/09/01 00:42:50;;;;;;;1.30;1.10;;;14.60;99.90;;;14.64;72.64;101818.56;4913665;29;20464;-72
2022/09/01 00:45:20;;;;;;;4.20;1.23;;;14.60;99.90;;;14.60;72.92;101811.00;4915224;29;20448;-70
2022/09/01 00:47:50;;;;;;;1.67;1.40;;;14.60;99.90;;;14.71;72.40;101813.97;4911036;29;20434;-71
2022/09/01 00:50:23;;;;;;;1.30;0.80;;;14.60;99.90;;;14.65;72.69;101820.25;4917739;29;20435;-71
2022/09/01 00:52:55;;;;;;;3.10;1.30;;;14.60;99.90;;;14.61;72.46;101810.81;4906888;29;20453;-72
2022/09/01 00:55:32;;;;;;;3.50;1.40;;;14.60;99.90;;;14.60;73.01;101816.44;4911569;29;20833;-72
2022/09/01 00:58:04;;;;;;;3.00;1.20;;;14.50;99.90;;;14.53;73.16;101807.41;4912114;29;20427;-71
2022/09/01 01:00:49;;;;;;;1.50;1.30;;;14.50;99.90;;;14.59;73.07;101817.50;4911658;29;20453;-71
2022/09/01 01:03:19;;;;;;;4.93;1.50;;;14.50;99.90;;;14.61;72.95;101813.53;4925608;29;20543;-71
2022/09/01 01:05:56;;;;;;;1.20;0.90;;;14.50;99.90;;;14.58;72.95;101811.19;4911204;29;20449;-72
2022/09/01 01:08:32;;;;;;;2.60;1.30;;;14.50;99.90;;;14.40;73.70;101812.81;4917596;29;20449;-71
2022/09/01 01:11:05;;;;;;;2.03;1.13;;;14.40;99.90;;;14.44;73.92;101809.50;4909758;29;20915;-70
2022/09/01 01:13:50;;;;;;;1.87;1.30;;;14.40;99.90;;;14.49;73.70;101811.59;4911589;29;20531;-71
2022/09/01 01:16:20;;;;;;;2.17;1.00;;;14.40;99.90;;;14.42;73.98;101814.31;4913353;29;20420;-71
2022/09/01 01:18:50;;;;;;;1.40;1.10;;;14.30;99.90;;;14.32;74.29;101817.41;4925095;29;20842;-70
2022/09/01 01:24:26;;;;;;;2.13;1.10;;;14.20;1.00;;;14.36;74.66;101817.84;4914855;29;21055;-70
2022/09/01 01:26:56;;;;;;;2.07;1.40;;;14.20;1.00;;;14.19;75.11;101814.59;4915839;29;20453;-71
2022/09/01 01:29:27;;;;;;;1.50;1.00;;;14.10;99.90;;;14.25;75.09;101816.53;4926146;29;20539;-70
2022/09/01 01:31:56;;;;;;;2.30;1.37;;;14.20;1.00;;;14.20;75.27;101815.44;4932859;29;20535;-72
2022/09/01 01:34:26;;;;;;;1.73;1.23;;;14.10;1.00;;;14.09;75.56;101811.41;4917343;29;20459;-71
2022/09/01 01:36:58;;;;;;;2.13;1.43;;;14.00;10.90;;;14.10;75.88;101815.84;4922143;29;20451;-71
2022/09/01 01:39:29;;;;;;;1.30;1.10;;;14.00;99.90;;;14.21;75.37;101822.59;4931886;29;20492;-72
2022/09/01 01:41:58;;;;;;;1.87;1.37;;;14.10;99.90;;;14.09;76.22;101824.19;4925077;29;20441;-70
2022/09/01 01:44:28;;;;;;;2.40;1.43;;;14.00;99.90;;;14.01;76.37;101817.06;4929583;29;20520;-72
2022/09/01 01:47:02;;;;;;;1.83;1.10;;;14.00;99.90;;;14.00;76.46;101817.25;4954900;28;20467;-70
2022/09/01 01:49:31;;;;;;;2.40;1.57;;;13.90;99.90;;;14.07;76.24;101818.97;4938250;29;21140;-71
2022/09/01 01:52:01;;;;;;;2.60;1.80;;;13.90;99.90;;;14.00;76.74;101812.66;4938983;29;20457;-72
2022/09/01 01:54:33;;;;;;;2.40;1.27;;;13.90;99.90;;;13.94;76.87;101810.75;4940301;29;20439;-72
2022/09/01 01:57:04;;;;;;;2.80;1.60;;;13.90;99.90;;;13.80;77.52;101806.25;4932706;29;20464;-71
2022/09/01 01:59:33;;;;;;;4.33;1.73;;;13.80;99.90;;;13.85;77.66;101810.06;4906059;29;20508;-71
2022/09/01 02:02:08;;;;;;;1.83;1.37;;;13.80;99.90;;;13.76;78.12;101805.00;4907464;29;20455;-70
2022/09/01 02:04:39;;;;;;;2.17;1.43;;;13.70;99.90;;;13.75;78.36;101804.13;4913211;29;20534;-70
2022/09/01 02:07:13;;;;;;;1.83;1.57;;;13.70;99.90;;;13.68;78.69;101810.59;4910832;29;20457;-70
2022/09/01 02:09:46;;;;;;;2.00;1.50;;;13.60;99.90;;;13.63;79.22;101802.19;4912826;29;20496;-71
2022/09/01 02:12:18;;;;;;;7.33;1.53;;;13.60;99.90;;;13.45;79.90;101806.28;4914266;29;20444;-71
2022/09/01 02:14:48;;;;;;;4.03;1.90;;;13.40;99.90;;;13.38;80.55;101802.66;4913876;29;20862;-71
2022/09/01 02:17:18;;;;;;;1.70;1.20;;;13.40;99.90;;;13.31;80.95;101806.41;4914289;29;20450;-71
2022/09/01 02:19:48;;;;;;;2.63;1.20;;;13.30;99.90;;;13.34;81.23;101808.72;4929162;29;20446;-72
2022/09/01 02:22:18;;;;;;;3.37;1.53;;;13.30;99.90;;;13.44;80.71;101818.19;4916110;29;20412;-72
2022/09/01 02:24:51;;;;;;;1.80;1.57;;;13.30;99.90;;;13.43;80.96;101813.78;4911574;29;20794;-71
2022/09/01 02:27:25;;;;;;;3.53;1.40;;;13.30;99.90;;;13.35;81.46;101816.66;4917677;29;20419;-72
2022/09/01 02:29:57;;;;;;;1.30;1.10;;;13.30;99.90;;;13.25;81.93;101809.91;4904146;29;20439;-71
2022/09/01 02:32:26;;;;;;;1.30;1.20;;;13.30;99.90;;;13.24;82.16;101811.78;4914862;29;20484;-71
2022/09/01 02:35:00;;;;;;;1.70;1.50;;;13.20;99.90;;;13.19;82.32;101808.81;4923068;29;20466;-71
2022/09/01 02:37:29;;;;;;;3.90;1.93;;;13.20;99.90;;;13.21;82.33;101806.75;4924616;29;20456;-71
2022/09/01 02:39:59;;;;;;;1.50;1.20;;;13.20;99.90;;;13.17;82.65;101810.88;4911133;29;20837;-71
2022/09/01 02:42:29;;;;;;;3.23;1.17;;;13.20;99.90;;;13.10;83.50;101809.13;4915455;29;20755;-71
2022/09/01 02:44:58;;;;;;;2.60;1.57;;;13.10;99.90;;;13.13;83.23;101806.88;4912909;29;20476;-71
2022/09/01 02:47:30;;;;;;;2.20;1.60;;;13.10;99.90;;;13.03;83.49;101806.31;4913963;29;20532;-71
2022/09/01 02:50:02;;;;;;;1.70;1.50;;;13.10;99.90;;;12.85;84.29;101803.25;4912707;29;20789;-72
2022/09/01 02:52:36;;;;;;;2.13;1.20;;;13.00;99.90;;;12.81;85.17;101799.25;4913082;29;20473;-70
2022/09/01 02:55:10;;;;;;;2.93;1.80;;;12.90;99.90;;;12.84;85.13;101798.84;4929935;29;20459;-71
2022/09/01 02:57:39;;;;;;;3.23;1.90;;;12.80;99.90;;;12.80;85.41;101797.56;4914261;29;20493;-71
2022/09/01 03:00:19;;;;;;;4.43;1.40;;;12.80;99.90;;;12.74;85.69;101803.75;4914868;29;20431;-71
2022/09/01 03:02:52;;;;;;;1.80;1.70;;;12.80;99.90;;;12.66;86.56;101801.19;4914163;29;20782;-71
2022/09/01 03:05:24;;;;;;;1.73;1.37;;;12.70;99.90;;;12.68;87.30;101799.13;4906944;29;20977;-71
2022/09/01 03:07:57;;;;;;;4.57;1.70;;;12.70;99.90;;;12.59;86.83;101801.94;4913743;29;20444;-71
2022/09/01 03:10:34;;;;;;;2.70;1.23;;;12.60;99.90;;;12.41;87.90;101795.28;4913836;29;20452;-71
2022/09/01 03:13:07;;;;;;;1.90;1.50;;;12.50;99.90;;;12.33;88.29;101792.69;4917846;29;21000;-71
2022/09/01 03:15:39;;;;;;;3.80;2.33;;;12.40;99.90;;;12.38;88.71;101792.97;4913059;29;20481;-71
2022/09/01 03:18:11;;;;;;;2.50;1.70;;;12.40;99.90;;;12.35;89.16;101794.16;4917530;29;20496;-71
2022/09/01 03:20:45;;;;;;;3.33;1.73;;;12.40;99.90;;;12.22;89.19;101793.19;4910982;29;20855;-71
2022/09/01 03:23:17;;;;;;;2.10;1.90;;;12.30;99.90;;;12.28;89.25;101793.28;4915138;29;20441;-71
2022/09/01 03:25:50;;;;;;;2.23;2.03;;;12.30;99.90;;;12.10;90.01;101790.16;4917209;29;20427;-71
2022/09/01 03:28:19;;;;;;;2.20;2.00;;;12.20;99.90;;;12.18;90.27;101787.31;4930410;29;21009;-72
2022/09/01 03:30:54;;;;;;;3.23;2.27;;;12.20;99.90;;;12.28;89.41;101793.28;4919743;29;20427;-72
2022/09/01 03:33:26;;;;;;;2.10;1.90;;;12.20;99.90;;;12.12;90.05;101785.34;4914191;29;20458;-70
2022/09/01 03:35:57;;;;;;;1.60;1.43;;;12.20;99.90;;;12.10;90.04;101790.16;4914270;29;20444;-71
2022/09/01 03:38:27;;;;;;;3.20;1.90;;;12.10;99.90;;;12.04;90.27;101790.91;4926157;29;20432;-71
2022/09/01 03:41:02;;;;;;;2.70;1.93;;;12.10;99.90;;;11.98;90.96;101786.22;4912014;29;20457;-70
2022/09/01 03:43:32;;;;;;;2.00;1.83;;;12.00;99.90;;;12.07;90.86;101790.50;4927044;29;20452;-71
2022/09/01 03:46:04;;;;;;;2.70;1.80;;;12.00;99.90;;;12.01;90.63;101791.25;4911838;29;20799;-71
2022/09/01 03:48:34;;;;;;;2.73;2.17;;;12.00;99.90;;;11.93;91.26;101794.94;4926482;29;20428;-69
2022/09/01 03:51:03;;;;;;;3.13;2.80;;;12.00;99.90;;;11.87;91.93;101802.97;4917680;29;20536;-70
2022/09/01 03:53:38;;;;;;;2.50;2.30;;;11.90;99.90;;;11.78;92.61;101794.09;4912688;29;20481;-71
2022/09/01 03:56:10;;;;;;;1.90;1.77;;;11.90;99.90;;;11.80;92.80;101794.78;4919326;29;20427;-70
2022/09/01 03:58:42;;;;;;;3.17;2.30;;;11.90;99.90;;;11.92;92.55;101792.41;4916781;29;20468;-71
2022/09/01 04:01:11;;;;;;;2.50;2.30;;;11.90;99.90;;;11.87;92.04;101786.69;4915987;29;20460;-70
2022/09/01 04:03:43;;;;;;;4.10;2.50;;;11.90;99.90;;;11.72;92.68;101792.09;4913117;29;20469;-71
2022/09/01 04:06:12;;;;;;;5.10;2.83;;;11.80;99.90;;;11.77;92.60;101795.97;4936216;29;20505;-70
2022/09/01 04:08:42;;;;;;;3.67;2.40;;;11.80;99.90;;;11.75;92.69;101789.91;4911253;29;20960;-72
2022/09/01 04:11:17;;;;;;;3.70;2.10;;;11.70;99.90;;;11.64;93.28;101790.34;4910871;29;20416;-70
2022/09/01 04:13:49;;;;;;;2.93;2.10;;;11.70;99.90;;;11.62;93.87;101795.09;4927718;29;20807;-72
2022/09/01 04:19:18;;;;;;;3.27;2.47;;;11.60;99.90;;;11.60;93.45;101793.63;4884959;29;20457;-71
2022/09/01 04:21:51;;;;;;;2.50;2.30;;;11.60;99.90;;;11.61;93.64;101790.72;4915714;29;20508;-70
2022/09/01 04:24:22;;;;;;;3.07;2.50;;;11.60;99.90;;;11.59;93.91;101786.50;4911036;29;20483;-70
2022/09/01 04:26:55;;;;;;;5.33;3.47;;;11.60;99.90;;;11.52;93.70;101783.69;4919820;29;20473;-70
2022/09/01 04:29:26;;;;;;;3.50;3.00;;;11.50;99.90;;;11.54;94.20;101787.06;4922053;29;20457;-71
2022/09/01 04:32:00;;;;;;;5.00;2.93;;;11.50;99.90;;;11.52;93.69;101789.13;4910849;29;20436;-70
2022/09/01 04:34:37;;;;;;;3.27;2.97;;;11.50;99.90;;;11.63;93.24;101788.66;4915583;29;20995;-70
2022/09/01 04:37:11;;;;;;;3.13;2.83;;;11.60;99.90;;;11.65;92.87;101786.63;4928953;29;20428;-71
2022/09/01 04:39:47;;;;;;;3.40;3.10;;;11.60;99.90;;;11.55;93.30;101783.34;4928683;29;20454;-70
2022/09/01 04:42:27;;;;;;;5.00;3.13;;;11.50;99.90;;;11.79;93.49;101793.09;4914323;29;20450;-71
2022/09/01 04:45:00;;;;;;;4.23;2.70;;;11.60;99.90;;;12.80;90.99;101792.13;4915908;29;20451;-72
2022/09/01 04:47:41;;;;;;;4.60;2.97;;;11.90;99.90;;;14.05;80.18;101803.88;4914295;29;20455;-71
2022/09/01 04:50:16;;;;;;;3.60;2.60;;;12.40;99.90;;;13.42;80.84;101790.34;4912154;29;20453;-70
2022/09/01 04:53:06;;;;;;;5.20;2.80;;;12.70;99.90;;;13.06;82.85;101792.38;4915132;29;20616;-70
2022/09/01 04:55:55;;;;;;;2.73;2.53;;;12.70;99.90;;;12.95;83.71;101798.31;4921174;29;20823;-71
2022/09/01 04:58:27;;;;;;;2.97;2.50;;;12.60;99.90;;;13.58;81.51;101793.81;4931349;29;20431;-72
2022/09/01 05:00:59;;;;;;;2.60;2.10;;;12.70;99.90;;;15.07;75.36;101793.63;4916771;29;20443;-71
2022/09/01 05:03:30;;;;;;;2.27;2.07;;;13.10;99.90;;;16.40;69.20;101793.09;4913209;29;20432;-71
2022/09/01 05:06:18;;;;;;;2.70;2.30;;;13.90;99.90;;;16.74;65.95;101797.31;4924313;29;20432;-71
2022/09/01 05:08:52;;;;;;;2.40;2.20;;;14.50;99.90;;;17.76;63.11;101796.84;4912217;29;20449;-71
2022/09/01 05:11:44;;;;;;;2.30;1.97;;;15.00;99.90;;;16.61;64.96;101798.22;4925089;29;20427;-71
2022/09/01 05:14:25;;;;;;;1.70;1.30;;;15.20;99.90;;;14.92;71.01;101801.19;4927321;29;20528;-71
2022/09/01 05:16:59;;;;;;;2.20;2.00;;;14.70;99.90;;;13.84;76.33;101802.97;4912502;29;20424;-71
2022/09/01 05:19:29;;;;;;;2.77;2.23;;;14.10;99.90;;;13.23;80.04;101792.94;4923182;29;20432;-71
2022/09/01 05:22:01;;;;;;;3.57;2.50;;;13.50;99.90;;;12.94;82.27;101793.91;4910975;29;20483;-71
2022/09/01 05:24:34;;;;;;;3.67;2.27;;;13.10;99.90;;;12.81;83.47;101796.53;4911269;29;20448;-71
2022/09/01 05:27:13;;;;;;;3.17;2.73;;;12.90;99.90;;;12.78;84.45;101799.66;4912085;29;20416;-71
2022/09/01 05:29:46;;;;;;;3.57;2.33;;;12.80;99.90;;;12.71;84.85;101798.72;4911134;29;20462;-71
2022/09/01 05:32:15;;;;;;;4.07;2.77;;;12.70;99.90;;;12.83;84.94;101797.19;4910823;29;20469;-71
2022/09/01 05:34:44;;;;;;;8.00;2.97;;;12.70;99.90;;;12.77;85.23;101798.81;4912291;29;20524;-70
2022/09/01 05:37:15;;;;;;;2.97;2.13;;;12.70;99.90;;;12.80;85.61;101797.56;4927108;29;20437;-70
2022/09/01 05:39:44;;;;;;;5.33;2.33;;;12.70;99.90;;;12.86;85.18;101802.22;4911921;29;20826;-70
2022/09/01 05:42:13;;;;;;;2.87;1.93;;;12.70;99.90;;;12.99;84.71;101796.91;4908441;29;20804;-70
2022/09/01 05:44:43;;;;;;;2.70;2.20;;;12.80;99.90;;;13.06;84.37;101803.25;4912884;29;20523;-71
2022/09/01 05:47:17;;;;;;;4.50;4.07;;;12.90;99.90;;;13.16;83.77;101802.94;4904670;29;20433;-71
2022/09/01 05:49:52;;;;;;;2.60;2.40;;;13.00;99.90;;;13.35;82.32;101802.22;4920299;29;20552;-70
2022/09/01 05:52:24;;;;;;;2.40;2.20;;;13.20;99.90;;;13.40;82.41;101803.31;4927810;29;20464;-71
2022/09/01 05:54:56;;;;;;;7.53;1.97;;;13.20;99.90;;;13.47;81.80;101812.34;4908326;29;20463;-71
2022/09/01 05:57:26;;;;;;;2.03;1.73;;;13.30;99.90;;;13.51;81.86;101817.41;4910411;29;20521;-72
2022/09/01 06:00:12;;;;;;;2.10;1.67;;;13.40;99.90;;;13.67;80.98;101808.91;4913304;29;20419;-71
2022/09/01 06:02:43;;;;;;;2.60;1.63;;;13.50;99.90;;;13.79;80.38;101804.59;4914867;29;20438;-71
2022/09/01 06:05:18;;;;;;;3.70;1.80;;;13.60;99.90;;;13.83;80.42;101806.72;4930863;28;20532;-71
2022/09/01 06:07:49;;;;;;;3.87;2.03;;;13.70;99.90;;;14.01;79.71;101808.03;4915778;29;20550;-71
2022/09/01 06:10:19;;;;;;;2.70;2.07;;;13.80;99.90;;;14.14;78.84;101814.38;4916582;29;20436;-71
2022/09/01 06:12:50;;;;;;;8.57;2.03;;;14.00;99.90;;;14.26;78.34;101811.91;4909111;29;20484;-72
2022/09/01 06:15:23;;;;;;;2.73;2.10;;;14.00;99.90;;;14.40;77.34;101804.66;4907220;29;21133;-72
2022/09/01 06:17:56;;;;;;;3.57;1.70;;;14.20;99.90;;;14.56;76.93;101798.84;4912072;29;20439;-72
2022/09/01 06:20:26;;;;;;;1.90;1.67;;;14.40;99.90;;;14.59;76.35;101801.97;4940063;29;20469;-71
2022/09/01 06:22:55;;;;;;;4.67;3.10;;;14.50;99.90;;;14.71;75.82;101804.94;4930735;29;20412;-71
2022/09/01 06:25:29;;;;;;;2.77;1.90;;;14.60;99.90;;;14.80;75.69;101803.69;4933434;29;20435;-71
2022/09/01 06:28:03;;;;;;;2.47;1.83;;;14.60;99.90;;;14.99;75.18;101791.97;4945636;28;20511;-72
2022/09/01 06:30:56;;;;;;;7.07;1.90;;;14.80;99.90;;;15.18;73.80;101806.66;4936612;29;20428;-73
2022/09/01 06:33:26;;;;;;;2.23;1.43;;;15.00;99.90;;;15.27;72.92;101807.25;4884576;29;20600;-69
2022/09/01 06:35:55;;;;;;;1.97;1.60;;;15.10;99.90;;;15.37;72.75;101802.22;4864711;29;20430;-69
2022/09/01 06:38:26;;;;;;;1.63;1.40;;;15.20;99.90;;;15.44;72.60;101819.44;4888651;29;20422;-69
2022/09/01 06:41:03;;;;;;;2.40;1.40;;;15.30;99.90;;;15.57;72.23;101820.28;4885155;29;20535;-69
2022/09/01 06:43:32;;;;;;;7.57;1.73;;;15.40;99.90;;;15.69;71.19;101801.34;4867929;29;20618;-69
2022/09/01 06:46:02;;;;;;;7.63;1.80;;;15.50;99.90;;;15.81;71.16;101807.84;4871436;29;20476;-69
2022/09/01 06:48:33;;;;;;;2.33;1.50;;;15.70;99.90;;;15.94;70.07;101813.25;4866100;29;20972;-70
2022/09/01 06:51:08;;;;;;;5.20;2.30;;;15.80;99.90;;;16.14;69.77;101820.53;4872022;29;20445;-69
2022/09/01 06:53:55;;;;;;;1.60;1.07;;;15.90;99.90;;;16.20;69.22;101822.38;4873438;29;20483;-70
2022/09/01 06:56:30;;;;;;;2.33;1.30;;;16.10;99.90;;;16.23;68.82;101819.22;4891089;29;20458;-70
2022/09/01 06:59:21;;;;;;;3.20;1.60;;;16.10;99.90;;;16.20;69.48;101825.13;4882710;29;20470;-70
2022/09/01 07:01:53;;;;;;;2.70;1.30;;;16.10;99.90;;;16.43;68.64;101819.97;4889667;29;20508;-68
2022/09/01 07:05:02;;;;;;;2.53;1.50;;;16.20;99.90;;;16.50;68.38;101826.25;4886919;29;20449;-69
2022/09/01 07:07:33;;;;;;;2.17;1.47;;;16.40;99.90;;;16.54;67.80;101824.75;4874253;29;20443;-69
2022/09/01 07:10:52;;;;;;;3.00;1.50;;;16.40;99.90;;;16.39;68.39;101824.19;4874625;29;20427;-69
2022/09/01 07:13:44;;;;;;;1.50;1.10;;;16.40;99.90;;;16.35;68.77;101825.69;4863283;29;20446;-70
2022/09/01 07:16:38;;;;;;;3.27;1.63;;;16.30;99.90;;;16.66;67.40;101833.94;4870675;29;20456;-69
2022/09/01 07:19:20;;;;;;;1.83;1.07;;;16.40;99.90;;;16.75;66.63;101832.63;4874479;29;20437;-69
2022/09/01 07:21:56;;;;;;;1.50;1.07;;;16.60;97.90;;;16.66;66.32;101825.72;4870776;29;20494;-70
2022/09/01 07:24:49;;;;;;;1.93;1.17;;;16.50;95.90;;;16.68;66.19;101831.84;4867103;29;20976;-69
2022/09/01 07:27:49;;;;;;;4.50;0.90;;;16.60;96.00;;;16.85;65.89;101832.97;4873559;29;20826;-69
2022/09/01 07:30:22;;;;;;;3.00;1.20;;;16.60;96.20;;;17.01;65.36;101830.75;4870427;29;20429;-70
2022/09/01 07:32:54;;;;;;;3.73;1.30;;;16.80;95.30;;;17.12;64.51;101827.31;4875028;29;21020;-70
2022/09/01 07:35:25;;;;;;;2.03;1.80;;;16.90;93.10;;;17.22;64.08;101828.50;4868439;29;20453;-70
2022/09/01 07:38:00;;;;;;;2.57;1.00;;;17.00;91.40;;;17.29;64.13;101829.25;4864162;29;21085;-70
2022/09/01 07:40:53;;;;;;;3.07;1.70;;;17.10;90.40;;;17.27;62.81;101830.56;4873439;29;20425;-69
2022/09/01 07:43:44;;;;;;;2.40;1.20;;;17.20;82.20;;;17.18;63.62;101829.16;4875044;29;20438;-70
2022/09/01 07:46:34;;;;;;;3.63;1.10;;;17.10;85.30;;;17.36;63.20;101834.69;4873318;29;20437;-70
2022/09/01 07:49:07;;;;;;;4.83;1.13;;;17.20;82.80;;;17.42;62.74;101833.78;4874637;29;20477;-69
2022/09/01 07:51:57;;;;;;;2.57;1.00;;;17.30;80.00;;;17.55;62.38;101836.41;4882348;29;20935;-70
2022/09/01 07:54:29;;;;;;;4.30;1.20;;;17.40;77.50;;;17.69;62.19;101840.69;4874686;29;20482;-69
2022/09/01 07:56:58;;;;;;;1.40;1.00;;;17.50;76.80;;;17.54;62.03;101834.72;4876307;29;20434;-70
2022/09/01 07:59:28;;;;;;;3.10;1.10;;;17.40;71.80;;;17.84;61.30;101842.22;4875354;29;20521;-70
2022/09/01 08:02:06;;;;;;;1.90;0.97;;;17.50;70.00;;;17.91;60.24;101832.06;4873497;29;20452;-71
2022/09/01 08:04:35;;;;;;;2.23;1.00;;;17.60;63.90;;;17.99;60.71;101839.97;4876423;29;20441;-70
2022/09/01 08:07:05;;;;;;;1.53;0.93;;;17.80;62.70;;;18.03;60.27;101841.19;4873366;29;20426;-71
2022/09/01 08:09:38;;;;;;;4.93;1.13;;;17.80;60.20;;;18.23;59.93;101841.78;4874603;29;20455;-70
2022/09/01 08:12:13;;;;;;;1.40;0.80;;;18.00;59.20;;;18.30;58.83;101848.00;4873234;29;21074;-69
2022/09/01 08:14:53;;;;;;;5.37;1.30;;;18.10;52.40;;;18.28;58.59;101847.41;4890760;29;20457;-70
2022/09/01 08:17:42;;;;;;;2.60;0.90;;;18.10;50.40;;;18.30;56.86;101850.72;4874354;29;20455;-72
2022/09/01 08:20:22;;;;;;;1.70;1.10;;;18.10;42.70;;;18.20;58.35;101843.06;4870975;29;20562;-70
2022/09/01 08:23:03;;;;;;;2.33;1.20;;;18.10;45.40;;;18.48;58.11;101856.22;4871723;29;20826;-70
2022/09/01 08:25:37;;;;;;;2.27;0.80;;;18.20;46.50;;;18.72;56.68;101837.16;4874935;29;20878;-70
2022/09/01 08:28:07;;;;;;;1.10;0.70;;;18.40;42.70;;;18.64;56.14;101841.03;4868500;29;20468;-70
2022/09/01 08:30:40;;;;;;;1.70;0.90;;;18.40;37.00;;;18.77;56.47;101837.28;4874222;29;20451;-74
2022/09/01 08:33:20;;;;;;;2.33;1.07;;;18.50;38.00;;;18.85;54.34;101835.03;4874395;29;20550;-70
2022/09/01 08:35:50;;;;;;;1.80;1.10;;;18.60;30.90;;;18.69;55.77;101834.88;4869164;29;20450;-71
2022/09/01 08:38:20;;;;;;;1.57;1.20;;;18.60;33.20;;;18.72;57.04;101840.72;4873284;29;20519;-70
2022/09/01 08:40:56;;;;;;;1.70;1.27;;;18.50;36.60;;;18.92;56.21;101838.53;4872684;29;20447;-70
2022/09/01 08:43:55;;;;;;;1.47;1.07;;;18.70;35.60;;;18.77;55.97;101840.03;4875306;29;20494;-70
2022/09/01 08:46:33;;;;;;;1.70;1.27;;;18.70;32.40;;;18.74;56.62;101837.72;4872358;29;20451;-70
2022/09/01 08:49:13;;;;;;;1.30;0.80;;;18.60;33.80;;;18.83;55.35;101828.94;4869684;29;20455;-70
2022/09/01 08:52:22;;;;;;;1.40;0.87;;;18.70;31.60;;;18.92;55.56;101841.25;4873427;29;20446;-71
2022/09/01 08:55:01;;;;;;;2.10;1.10;;;18.60;31.30;;;19.04;55.70;101838.53;4872921;29;20479;-71
2022/09/01 08:57:36;;;;;;;1.97;1.00;;;18.80;32.10;;;18.89;55.62;101838.13;4868063;29;20459;-70
2022/09/01 09:00:25;;;;;;;2.47;1.20;;;18.70;31.20;;;18.70;55.79;101823.66;4874475;29;20905;-70
2022/09/01 09:03:12;;;;;;;1.63;1.10;;;18.60;30.00;;;19.06;55.46;101831.75;4872675;29;20489;-70
2022/09/01 09:06:03;;;;;;;6.03;1.43;;;18.70;31.00;;;19.25;54.87;101829.75;4871892;29;20786;-71
2022/09/01 09:08:58;;;;;;;1.90;1.10;;;18.90;30.20;;;19.22;54.15;101835.69;4869479;29;20451;-71
2022/09/01 09:12:07;;;;;;;2.90;1.60;;;19.00;27.70;;;19.25;54.21;101831.66;4863808;29;20480;-70
2022/09/01 09:15:00;;;;;;;1.83;1.10;;;19.10;28.20;;;19.31;54.14;101817.84;4867558;29;20511;-71
2022/09/01 09:17:38;;;;;;;1.40;0.80;;;19.00;27.30;;;19.44;52.96;101831.34;4871642;29;20552;-70
2022/09/01 09:20:09;;;;;;;1.97;0.97;;;19.10;25.10;;;19.26;53.13;101831.44;4873731;29;20454;-70
2022/09/01 09:22:39;;;;;;;1.83;1.10;;;19.10;25.40;;;19.37;52.78;101821.50;4874271;29;20812;-70
2022/09/01 09:25:13;;;;;;;1.43;0.97;;;19.20;23.90;;;19.44;52.32;101825.03;4870857;29;20493;-71
2022/09/01 09:27:49;;;;;;;1.40;1.00;;;19.20;23.40;;;19.22;52.98;101829.41;4874079;29;20510;-71
2022/09/01 09:30:31;;;;;;;5.07;1.67;;;19.10;23.00;;;19.12;53.27;101824.50;4869269;29;20421;-70
2022/09/01 09:33:05;;;;;;;4.80;0.97;;;18.90;23.70;;;19.01;52.96;101828.03;4873152;29;20463;-71
2022/09/01 09:35:56;;;;;;;1.50;1.03;;;18.80;23.20;;;19.33;51.05;101815.66;4873622;29;20474;-70
2022/09/01 09:38:30;;;;;;;1.53;0.90;;;19.00;20.00;;;19.29;50.90;101819.13;4876799;29;20463;-71
2022/09/01 09:41:05;;;;;;;2.30;1.20;;;19.00;19.20;;;19.48;50.39;101813.31;4887806;29;20472;-70
2022/09/01 09:43:54;;;;;;;1.70;1.00;;;19.10;18.80;;;19.82;50.64;101813.53;4873592;29;20482;-70
2022/09/01 09:46:34;;;;;;;3.43;1.03;;;19.40;19.30;;;19.90;50.00;101815.91;4873108;29;20448;-71
2022/09/01 09:49:25;;;;;;;1.73;0.97;;;19.60;18.20;;;19.77;50.43;101810.66;4871316;29;20450;-72
2022/09/01 09:52:18;;;;;;;3.60;0.97;;;19.50;18.10;;;19.85;51.07;101804.78;4871593;29;20629;-71
2022/09/01 09:55:03;;;;;;;2.70;1.10;;;19.50;18.80;;;20.20;49.30;101799.22;4874563;29;20441;-71
2022/09/01 09:57:40;;;;;;;1.50;0.90;;;19.80;17.20;;;19.87;50.36;101799.91;4871122;29;20455;-69
2022/09/01 10:00:27;;;;;;;1.13;0.73;;;19.70;16.90;;;19.87;50.20;101814.47;4869632;29;20482;-69
2022/09/01 10:03:02;;;;;;;1.50;0.80;;;19.60;17.00;;;20.01;49.53;101809.53;4872044;29;20542;-70
2022/09/01 10:05:41;;;;;;;4.13;1.00;;;19.70;15.70;;;20.19;48.52;101814.03;4873371;29;20447;-70
2022/09/01 10:08:36;;;;;;;1.60;0.90;;;19.90;14.70;;;20.26;47.69;101815.56;4874648;29;20451;-69
2022/09/01 10:11:07;;;;;;;1.10;0.67;;;19.90;13.10;;;19.87;47.49;101805.41;4867904;29;20457;-71
2022/09/01 10:13:36;;;;;;;1.53;0.80;;;19.70;11.60;;;19.58;48.50;101807.22;4873788;29;20523;-70
2022/09/01 10:16:22;;;;;;;1.70;0.80;;;19.50;12.40;;;19.77;47.42;101818.91;4887251;29;20478;-71
2022/09/01 10:19:00;;;;;;;2.40;1.33;;;19.50;11.50;;;20.04;45.73;101811.84;4866033;29;20531;-71
2022/09/01 10:21:36;;;;;;;3.60;1.07;;;19.60;9.70;;;19.86;46.27;101809.22;4866013;29;20444;-71
2022/09/01 10:24:18;;;;;;;1.30;0.80;;;19.60;8.90;;;20.05;45.45;101807.97;4864034;29;20850;-71
2022/09/01 10:27:01;;;;;;;1.60;1.00;;;19.70;8.30;;;20.25;45.08;101813.91;4883799;29;20452;-70
2022/09/01 10:29:38;;;;;;;2.00;0.70;;;19.80;7.80;;;20.38;45.23;101819.13;4876850;29;20438;-72
2022/09/01 10:32:21;;;;;;;5.40;0.93;;;20.00;7.90;;;20.45;45.26;101818.16;4887814;29;20523;-71
2022/09/01 10:35:10;;;;;;;1.83;0.97;;;20.10;7.80;;;20.79;43.41;101808.91;4873851;29;20466;-70
2022/09/01 10:37:42;;;;;;;1.60;0.93;;;20.40;6.20;;;20.50;44.95;101807.25;4874930;29;21014;-72
2022/09/01 10:40:32;;;;;;;1.57;0.90;;;20.20;6.30;;;20.61;45.53;101806.38;4879151;29;20495;-70
2022/09/01 10:43:35;;;;;;;1.50;0.80;;;20.20;7.20;;;20.86;45.06;101806.00;4869397;29;20444;-70
2022/09/01 10:46:45;;;;;;;2.57;0.90;;;20.40;6.90;;;21.19;43.45;101804.13;4872414;29;20500;-70
2022/09/01 10:50:03;;;;;;;2.73;1.10;;;20.60;5.60;;;21.11;42.66;101807.25;4872063;29;20526;-69
2022/09/01 10:53:09;;;;;;;1.87;1.00;;;20.80;3.90;;;21.24;42.57;101795.97;4873508;29;21032;-70
2022/09/01 10:55:44;;;;;;;3.50;0.90;;;20.90;2.90;;;21.48;42.01;101804.03;4871376;29;20447;-69